Time;durP1;ratioP1;P1;durP2;ratioP2;P2;SDS_P1;SDS_P2;PMS_P1;PMS_P2;Temp;Humidity;BMP_temperature;BMP_pressure;BME280_temperature;BME280_humidity;BME280_pressure;Samples;Min_cycle;Max_cycle;Signal;HPM_P1;HPM_P2
2021/04/08 00:00:34;;;;;;;9.13;5.33;;;;;;;0.30;74.95;98677.16;1770233;81;21128;-65
2021/04/08 00:03:02;;;;;;;8.53;5.35;;;;;;;0.32;74.90;98678.42;1735583;82;21585;-65
2021/04/08 00:05:29;;;;;;;8.00;4.50;;;;;;;0.28;74.96;98684.64;1778291;81;21191;-65
2021/04/08 00:07:58;;;;;;;7.85;4.92;;;;;;;0.29;74.82;98688.94;1777759;80;21115;-65
2021/04/08 00:10:25;;;;;;;8.48;5.55;;;;;;;0.24;74.95;98684.41;1772755;81;21354;-64
2021/04/08 00:12:54;;;;;;;8.40;5.08;;;;;;;0.26;74.89;98686.49;1771066;81;21096;-64
2021/04/08 00:15:23;;;;;;;8.33;5.22;;;;;;;0.25;74.94;98690.00;1768321;81;21298;-64
2021/04/08 00:17:50;;;;;;;9.78;5.95;;;;;;;0.25;74.82;98691.30;1747813;82;22167;-64
2021/04/08 00:20:20;;;;;;;11.12;5.83;;;;;;;0.22;74.91;98701.82;1747878;82;21331;-64
2021/04/08 00:22:47;;;;;;;8.30;5.60;;;;;;;0.25;74.80;98692.60;1748561;81;21160;-64
2021/04/08 00:25:15;;;;;;;7.83;5.67;;;;;;;0.21;74.83;98697.56;1747754;82;21152;-64
2021/04/08 00:27:43;;;;;;;8.33;5.47;;;;;;;0.26;74.72;98695.59;1772128;80;21612;-65
2021/04/08 00:30:12;;;;;;;8.10;5.35;;;;;;;0.20;74.84;98707.09;1769232;80;21636;-64
2021/04/08 00:32:40;;;;;;;11.40;6.10;;;;;;;0.21;74.74;98706.19;1767984;80;21192;-64
2021/04/08 00:35:09;;;;;;;9.63;6.35;;;;;;;0.14;74.84;98712.56;1727742;82;21321;-65
2021/04/08 00:37:36;;;;;;;10.03;5.97;;;;;;;0.13;74.86;98713.03;1773961;80;21147;-64
2021/04/08 00:40:14;;;;;;;11.40;5.58;;;;;;;0.10;74.92;98727.92;1773296;81;21163;-64
2021/04/08 00:42:43;;;;;;;10.32;6.00;;;;;;;0.10;74.92;98722.28;1714129;84;21925;-64
2021/04/08 00:45:10;;;;;;;10.25;6.25;;;;;;;0.05;74.97;98726.84;1714142;84;21302;-64
2021/04/08 00:47:38;;;;;;;9.58;5.95;;;;;;;0.06;74.95;98727.20;1714349;84;21187;-64
2021/04/08 00:50:08;;;;;;;9.70;7.00;;;;;;;0.03;75.00;98730.42;1768513;80;21112;-64
2021/04/08 00:52:37;;;;;;;9.83;5.80;;;;;;;0.05;74.97;98738.98;1775473;81;21251;-65
2021/04/08 00:55:07;;;;;;;11.00;5.90;;;;;;;0.02;75.00;98733.92;1771732;81;21180;-64
2021/04/08 00:57:34;;;;;;;11.53;6.17;;;;;;;0.07;74.87;98741.89;1774248;80;21482;-64
2021/04/08 01:00:05;;;;;;;11.18;6.53;;;;;;;0.02;74.96;98742.55;1775205;81;21664;-66
2021/04/08 01:02:31;;;;;;;13.00;6.80;;;;;;;0.07;74.83;98747.09;1763863;80;22169;-65
2021/04/08 01:05:00;;;;;;;11.05;6.67;;;;;;;0.02;74.93;98758.15;1763195;81;21161;-65
2021/04/08 01:07:28;;;;;;;10.25;5.90;;;;;;;0.05;74.86;98758.47;1763327;81;21123;-65
2021/04/08 01:09:56;;;;;;;9.63;6.35;;;;;;;-0.01;74.95;98759.13;1763640;80;21209;-65
2021/04/08 01:12:24;;;;;;;9.15;6.08;;;;;;;-0.01;74.93;98757.00;1776089;80;21183;-65
2021/04/08 01:14:51;;;;;;;8.85;5.53;;;;;;;-0.04;74.97;98758.41;1706566;83;21163;-65
2021/04/08 01:17:23;;;;;;;11.55;6.28;;;;;;;-0.04;74.96;98752.77;1764859;81;21584;-65
2021/04/08 01:20:25;;;;;;;8.98;6.35;;;;;;;-0.06;74.96;98748.08;1720446;82;21096;-65
2021/04/08 01:23:30;;;;;;;10.30;6.58;;;;;;;-0.04;74.98;98758.41;1775406;80;21596;-65
2021/04/08 01:26:23;;;;;;;9.85;6.37;;;;;;;-0.07;74.97;98758.09;1683677;83;21172;-65
2021/04/08 01:29:04;;;;;;;12.80;6.53;;;;;;;-0.08;74.97;98767.25;1774411;80;21081;-65
2021/04/08 01:31:32;;;;;;;11.78;6.62;;;;;;;-0.13;75.12;98771.80;1687660;83;21219;-64
2021/04/08 01:34:13;;;;;;;9.75;6.30;;;;;;;-0.13;75.07;98773.94;1699300;84;21178;-65
2021/04/08 01:36:43;;;;;;;10.80;6.87;;;;;;;-0.18;75.18;98774.15;1711490;83;21160;-65
2021/04/08 01:39:14;;;;;;;9.68;6.60;;;;;;;-0.12;75.03;98783.89;1683703;84;21572;-65
2021/04/08 01:41:46;;;;;;;12.78;6.65;;;;;;;-0.17;75.20;98779.74;1712038;83;21263;-65
2021/04/08 01:44:18;;;;;;;9.10;6.58;;;;;;;-0.13;75.09;98790.00;1728668;83;21566;-65
2021/04/08 01:46:51;;;;;;;10.48;6.90;;;;;;;-0.18;75.18;98783.68;1694267;83;21308;-64
2021/04/08 01:49:19;;;;;;;11.10;6.87;;;;;;;-0.12;75.04;98791.22;1723256;83;21108;-64
2021/04/08 01:51:46;;;;;;;12.43;7.40;;;;;;;-0.16;75.14;98794.87;1710708;84;21150;-64
2021/04/08 01:54:13;;;;;;;9.68;6.95;;;;;;;-0.12;75.00;98802.09;1778479;81;21336;-64
2021/04/08 01:56:41;;;;;;;10.65;6.65;;;;;;;-0.16;75.11;98798.77;1777372;80;21282;-64
2021/04/08 01:59:08;;;;;;;12.80;7.60;;;;;;;-0.12;75.00;98808.12;1780920;80;21163;-64
2021/04/08 02:01:35;;;;;;;11.05;7.75;;;;;;;-0.15;75.12;98819.95;1699777;81;21155;-64
2021/04/08 02:04:04;;;;;;;12.15;7.22;;;;;;;-0.11;75.01;98814.18;1766253;81;21191;-64
2021/04/08 02:06:31;;;;;;;10.93;7.55;;;;;;;-0.17;75.12;98815.27;1705911;84;21223;-64
2021/04/08 02:08:58;;;;;;;10.82;7.10;;;;;;;-0.13;75.02;98822.02;1685846;84;21128;-64
2021/04/08 02:11:26;;;;;;;13.03;7.62;;;;;;;-0.19;75.14;98828.33;1764734;80;21581;-64
2021/04/08 02:13:53;;;;;;;12.07;7.62;;;;;;;-0.17;75.07;98834.31;1779724;80;21152;-64
2021/04/08 02:16:22;;;;;;;10.82;7.17;;;;;;;-0.21;75.14;98837.09;1712798;82;21445;-64
2021/04/08 02:18:50;;;;;;;12.88;7.75;;;;;;;-0.22;75.11;98841.45;1747438;82;21184;-64
2021/04/08 02:21:19;;;;;;;11.80;7.58;;;;;;;-0.22;75.11;98849.25;1765866;81;21148;-64
2021/04/08 02:23:49;;;;;;;13.03;7.67;;;;;;;-0.24;75.13;98848.45;1771625;81;21298;-64
2021/04/08 02:26:18;;;;;;;11.30;6.70;;;;;;;-0.24;75.09;98854.95;1771676;81;21179;-64
2021/04/08 02:28:46;;;;;;;11.60;6.85;;;;;;;-0.25;75.16;98854.55;1774985;81;21159;-64
2021/04/08 02:31:13;;;;;;;12.95;7.97;;;;;;;-0.25;75.16;98851.95;1777289;80;21390;-64
2021/04/08 02:33:41;;;;;;;12.82;7.37;;;;;;;-0.26;75.16;98854.16;1782295;80;21631;-64
2021/04/08 02:36:09;;;;;;;12.10;7.50;;;;;;;-0.28;75.15;98848.20;1777267;80;21135;-65
2021/04/08 02:38:37;;;;;;;15.43;8.48;;;;;;;-0.27;75.12;98858.13;1755655;82;21333;-65
2021/04/08 02:41:09;;;;;;;14.05;8.35;;;;;;;-0.28;75.06;98863.78;1722220;82;21151;-65
2021/04/08 02:43:36;;;;;;;13.08;8.85;;;;;;;-0.32;75.15;98867.86;1688801;84;21165;-65
2021/04/08 02:46:05;;;;;;;12.00;7.92;;;;;;;-0.28;75.08;98877.22;1686829;85;21283;-65
2021/04/08 02:48:33;;;;;;;12.03;8.00;;;;;;;-0.34;75.15;98881.75;1692361;83;21630;-64
2021/04/08 02:51:06;;;;;;;13.32;8.15;;;;;;;-0.29;74.99;98875.55;1777104;80;21559;-63
2021/04/08 02:53:58;;;;;;;15.72;9.45;;;;;;;-0.36;75.14;98883.58;1758747;80;21112;-64
2021/04/08 02:56:43;;;;;;;16.48;9.68;;;;;;;-0.32;75.03;98881.68;1755523;82;21345;-64
2021/04/08 02:59:17;;;;;;;16.75;10.15;;;;;;;-0.38;75.17;98893.64;1760657;80;21127;-65
2021/04/08 03:02:04;;;;;;;13.65;9.50;;;;;;;-0.37;75.02;98888.37;1708012;83;21583;-65
2021/04/08 03:04:39;;;;;;;17.70;10.13;;;;;;;-0.43;75.12;98887.31;1746687;82;21178;-64
2021/04/08 03:07:07;;;;;;;15.65;9.75;;;;;;;-0.40;75.05;98891.55;1689863;83;21117;-64
2021/04/08 03:09:39;;;;;;;16.20;9.03;;;;;;;-0.44;75.11;98901.67;1715400;83;21337;-65
2021/04/08 03:12:11;;;;;;;18.73;9.55;;;;;;;-0.42;75.01;98902.44;1715374;83;21152;-64
2021/04/08 03:14:43;;;;;;;17.82;9.70;;;;;;;-0.45;75.06;98914.26;1745704;82;21245;-65
2021/04/08 03:17:10;;;;;;;16.70;9.03;;;;;;;-0.43;75.01;98915.05;1717358;83;21199;-64
2021/04/08 03:19:39;;;;;;;16.35;9.43;;;;;;;-0.46;75.00;98910.83;1753228;80;21594;-64
2021/04/08 03:22:08;;;;;;;16.25;9.13;;;;;;;-0.43;74.93;98921.55;1771273;80;21111;-64
2021/04/08 03:24:37;;;;;;;15.03;9.28;;;;;;;-0.46;74.98;98929.45;1715778;83;21203;-64
2021/04/08 03:27:05;;;;;;;15.88;9.48;;;;;;;-0.41;74.85;98924.48;1765751;80;21163;-64
2021/04/08 03:29:33;;;;;;;15.83;9.68;;;;;;;-0.44;74.96;98926.34;1745806;80;21280;-63
2021/04/08 03:32:00;;;;;;;15.85;10.58;;;;;;;-0.39;74.82;98934.81;1784910;80;21643;-64
2021/04/08 03:34:27;;;;;;;16.67;10.28;;;;;;;-0.46;74.91;98935.50;1717919;83;21203;-65
2021/04/08 03:36:56;;;;;;;15.15;9.75;;;;;;;-0.43;74.83;98934.08;1688442;83;21308;-65
2021/04/08 03:39:23;;;;;;;16.60;9.60;;;;;;;-0.47;74.89;98942.90;1744511;82;21159;-65
2021/04/08 03:41:50;;;;;;;17.98;10.65;;;;;;;-0.44;74.84;98947.13;1772948;80;21126;-65
2021/04/08 03:44:18;;;;;;;17.65;10.98;;;;;;;-0.46;74.96;98946.33;1773966;80;21159;-65
2021/04/08 03:46:45;;;;;;;16.52;10.85;;;;;;;-0.45;74.93;98946.73;1713909;84;21159;-65
2021/04/08 03:49:15;;;;;;;15.93;10.45;;;;;;;-0.44;74.93;98958.36;1685473;84;21333;-64
2021/04/08 03:51:44;;;;;;;17.02;10.63;;;;;;;-0.41;74.90;98957.39;1713875;84;21346;-65
2021/04/08 03:54:15;;;;;;;16.15;10.03;;;;;;;-0.39;74.92;98963.39;1714474;82;21346;-65
2021/04/08 03:56:45;;;;;;;16.52;10.78;;;;;;;-0.32;74.91;98971.78;1713892;83;21188;-65
2021/04/08 03:59:12;;;;;;;16.90;10.68;;;;;;;-0.28;74.85;98972.05;1713154;83;21235;-64
2021/04/08 04:01:39;;;;;;;14.60;10.30;;;;;;;-0.20;74.85;98982.55;1710493;84;21322;-64
2021/04/08 04:04:09;;;;;;;19.87;11.15;;;;;;;-0.04;74.88;98974.16;1713638;83;21196;-65
2021/04/08 04:06:37;;;;;;;17.00;10.08;;;;;;;0.37;74.80;98975.58;1713447;83;21160;-65
2021/04/08 04:09:05;;;;;;;19.40;11.25;;;;;;;1.00;73.70;98978.58;1712084;83;21136;-65
2021/04/08 04:11:32;;;;;;;19.20;10.68;;;;;;;1.48;72.60;98973.84;1699433;84;21218;-65
2021/04/08 04:14:01;;;;;;;21.02;10.40;;;;;;;1.93;71.08;98983.07;1699398;84;21199;-65
2021/04/08 04:16:29;;;;;;;18.65;11.18;;;;;;;2.33;70.09;98980.75;1700812;83;21309;-65
2021/04/08 04:18:57;;;;;;;14.95;10.10;;;;;;;2.67;69.00;98983.02;1728666;83;21137;-65
2021/04/08 04:21:25;;;;;;;14.68;9.65;;;;;;;3.03;67.74;98976.84;1728684;83;21126;-65
2021/04/08 04:23:52;;;;;;;16.50;9.88;;;;;;;3.33;66.78;98977.00;1728450;83;21149;-65
2021/04/08 04:26:20;;;;;;;15.80;10.30;;;;;;;3.54;65.92;98980.70;1728438;83;21192;-65
2021/04/08 04:28:47;;;;;;;17.98;11.12;;;;;;;3.79;65.05;98982.84;1712313;83;21184;-65
2021/04/08 04:31:14;;;;;;;18.12;10.48;;;;;;;4.03;64.30;98988.94;1769445;80;21242;-65
2021/04/08 04:33:42;;;;;;;16.90;10.50;;;;;;;4.23;63.38;98992.63;1768717;81;21128;-65
2021/04/08 04:36:10;;;;;;;17.62;11.35;;;;;;;4.43;62.35;98992.78;1769270;80;21152;-65
2021/04/08 04:38:38;;;;;;;17.62;11.22;;;;;;;4.62;61.86;98998.28;1717762;83;21145;-65
2021/04/08 04:41:05;;;;;;;15.30;10.72;;;;;;;4.80;61.28;99009.45;1774675;80;21139;-65
2021/04/08 04:43:32;;;;;;;17.87;11.90;;;;;;;4.99;60.59;99009.70;1741592;82;21153;-64
2021/04/08 04:46:00;;;;;;;19.80;11.43;;;;;;;5.13;59.95;99007.55;1781346;80;21158;-65
2021/04/08 04:48:27;;;;;;;19.23;12.15;;;;;;;5.28;59.63;99010.58;1738639;82;21256;-65
2021/04/08 04:50:55;;;;;;;20.90;12.75;;;;;;;5.42;59.07;99003.16;1706533;84;21107;-65
2021/04/08 04:53:23;;;;;;;18.67;11.85;;;;;;;5.49;58.59;99004.97;1711707;83;21160;-65
2021/04/08 04:55:50;;;;;;;19.73;12.23;;;;;;;5.53;58.36;99007.77;1713672;83;21145;-65
2021/04/08 04:58:18;;;;;;;15.93;11.28;;;;;;;5.64;58.37;99002.70;1761011;80;21187;-65
2021/04/08 05:00:45;;;;;;;22.62;14.93;;;;;;;5.84;57.99;99001.92;1778331;80;21257;-65
2021/04/08 05:03:12;;;;;;;20.08;11.10;;;;;;;6.02;57.58;99010.00;1775522;79;21178;-66
2021/04/08 05:05:39;;;;;;;17.65;11.28;;;;;;;6.15;57.04;99010.51;1776527;80;21154;-65
2021/04/08 05:08:06;;;;;;;21.33;13.32;;;;;;;6.20;56.44;99000.55;1710170;83;21681;-64
2021/04/08 05:10:34;;;;;;;21.50;13.00;;;;;;;6.25;56.31;99005.03;1729321;82;21694;-65
2021/04/08 05:13:01;;;;;;;19.77;11.60;;;;;;;6.30;55.75;99004.75;1777572;80;21176;-65
2021/04/08 05:15:29;;;;;;;16.80;11.55;;;;;;;6.36;55.83;99019.63;1755366;82;21137;-65
2021/04/08 05:17:58;;;;;;;19.50;12.03;;;;;;;6.51;55.51;99018.25;1765011;80;21628;-66
2021/04/08 05:20:25;;;;;;;15.72;11.12;;;;;;;6.62;55.44;99027.59;1768240;81;21290;-65
2021/04/08 05:22:54;;;;;;;20.08;12.28;;;;;;;6.69;55.23;99036.77;1780953;80;21264;-65
2021/04/08 05:25:22;;;;;;;15.53;10.88;;;;;;;6.73;55.08;99038.25;1713930;83;21199;-66
2021/04/08 05:27:49;;;;;;;16.20;10.78;;;;;;;6.82;54.77;99030.72;1777617;80;21627;-66
2021/04/08 05:30:19;;;;;;;16.23;10.88;;;;;;;6.87;54.69;99033.39;1773537;81;21344;-66
2021/04/08 05:32:46;;;;;;;16.77;11.25;;;;;;;6.94;54.25;99040.39;1769966;81;21195;-66
2021/04/08 05:35:13;;;;;;;17.65;12.37;;;;;;;7.00;54.22;99030.78;1768126;81;21176;-65
2021/04/08 05:37:41;;;;;;;15.98;10.82;;;;;;;7.07;54.16;99042.20;1768370;81;21640;-65
2021/04/08 05:40:11;;;;;;;16.55;11.40;;;;;;;7.09;54.04;99036.39;1769929;81;21127;-65
2021/04/08 05:42:38;;;;;;;14.43;10.45;;;;;;;7.13;54.49;99037.86;1777612;79;21305;-65
2021/04/08 05:45:08;;;;;;;14.78;10.38;;;;;;;7.15;54.04;99049.13;1681160;84;21171;-66
2021/04/08 05:47:35;;;;;;;16.17;10.82;;;;;;;7.00;53.96;99051.81;1768759;81;21161;-65
2021/04/08 05:50:05;;;;;;;15.15;10.32;;;;;;;6.75;54.74;99047.34;1707834;83;21573;-66
2021/04/08 05:52:32;;;;;;;14.28;10.38;;;;;;;6.53;55.29;99057.10;1770289;80;21155;-65
2021/04/08 05:54:59;;;;;;;17.45;10.43;;;;;;;6.36;55.74;99051.14;1707667;84;21663;-65
2021/04/08 05:57:28;;;;;;;13.72;10.08;;;;;;;6.26;56.35;99052.67;1686801;84;21225;-65
2021/04/08 05:59:56;;;;;;;14.28;10.25;;;;;;;6.21;56.54;99056.93;1709223;83;21312;-65
2021/04/08 06:02:23;;;;;;;17.30;11.20;;;;;;;6.16;56.99;99058.97;1776420;81;21132;-65
2021/04/08 06:04:51;;;;;;;15.00;10.15;;;;;;;6.10;57.44;99071.65;1778437;80;21170;-65
2021/04/08 06:07:20;;;;;;;14.58;9.00;;;;;;;6.09;57.60;99066.02;1778185;81;21140;-65
2021/04/08 06:09:49;;;;;;;14.38;10.45;;;;;;;6.06;56.96;99081.05;1778050;81;21139;-66
2021/04/08 06:12:17;;;;;;;14.20;10.10;;;;;;;5.90;57.32;99082.90;1778217;80;21702;-66
2021/04/08 06:14:46;;;;;;;18.05;11.08;;;;;;;5.76;57.71;99088.16;1778161;80;21119;-66
2021/04/08 06:17:13;;;;;;;15.48;10.72;;;;;;;5.57;57.73;99082.70;1757155;81;21112;-66
2021/04/08 06:19:44;;;;;;;17.07;10.30;;;;;;;5.40;58.27;99090.28;1761604;81;21174;-65
2021/04/08 06:22:13;;;;;;;14.45;10.48;;;;;;;5.28;58.97;99091.86;1767774;81;21163;-65
2021/04/08 06:24:40;;;;;;;15.80;9.78;;;;;;;5.23;59.26;99091.25;1763121;81;21137;-65
2021/04/08 06:27:09;;;;;;;16.62;11.38;;;;;;;5.22;59.47;99094.84;1774855;81;21128;-65
2021/04/08 06:29:37;;;;;;;17.73;10.70;;;;;;;5.40;59.74;99091.59;1776266;81;21294;-65
2021/04/08 06:32:06;;;;;;;19.37;10.75;;;;;;;5.46;59.42;99104.79;1773836;80;21195;-65
2021/04/08 06:34:33;;;;;;;20.43;12.85;;;;;;;5.36;59.82;99104.03;1771031;80;21179;-65
2021/04/08 06:37:01;;;;;;;16.42;12.30;;;;;;;5.28;59.74;99107.59;1776000;80;21159;-65
2021/04/08 06:39:29;;;;;;;14.65;10.60;;;;;;;5.21;59.87;99115.42;1775325;80;21285;-65
2021/04/08 06:41:57;;;;;;;15.63;11.73;;;;;;;5.11;60.20;99116.42;1774993;80;21124;-62
2021/04/08 06:44:27;;;;;;;18.52;12.13;;;;;;;5.00;60.77;99117.05;1767668;80;21592;-63
2021/04/08 06:46:58;;;;;;;16.07;11.85;;;;;;;4.91;60.40;99112.31;1765702;80;21269;-64
2021/04/08 06:49:48;;;;;;;15.78;11.05;;;;;;;4.75;60.76;99129.39;1771467;81;21180;-65
2021/04/08 06:52:17;;;;;;;15.72;11.93;;;;;;;4.69;61.32;99131.03;1773330;80;21623;-66
2021/04/08 06:54:44;;;;;;;15.00;10.82;;;;;;;4.84;60.90;99138.50;1712064;84;21589;-65
2021/04/08 06:57:18;;;;;;;17.85;12.65;;;;;;;4.79;60.62;99141.85;1759801;80;21176;-66
2021/04/08 06:59:46;;;;;;;;;;;;;;;4.60;61.33;99149.41;1702692;84;21156;-65
2021/04/08 07:02:19;;;;;;;17.23;11.25;;;;;;;4.52;61.54;99147.22;1712336;83;20182;-66
2021/04/08 07:04:46;;;;;;;15.83;11.40;;;;;;;4.40;62.39;99151.36;1755570;80;21131;-66
2021/04/08 07:07:14;;;;;;;17.02;10.63;;;;;;;4.39;62.60;99150.97;1728708;82;21163;-65
2021/04/08 07:09:42;;;;;;;16.20;10.93;;;;;;;4.45;63.99;99151.56;1687526;84;21177;-66
2021/04/08 07:12:11;;;;;;;15.80;11.80;;;;;;;4.55;62.62;99147.06;1765176;80;21569;-66
2021/04/08 07:14:39;;;;;;;16.73;11.60;;;;;;;4.53;62.49;99154.63;1784746;80;21345;-65
2021/04/08 07:17:11;;;;;;;18.17;12.45;;;;;;;4.50;62.91;99159.56;1784675;80;21164;-65
2021/04/08 07:19:39;;;;;;;15.83;12.40;;;;;;;4.50;62.74;99154.78;1764967;80;21167;-65
2021/04/08 07:22:07;;;;;;;23.00;13.25;;;;;;;4.51;62.71;99159.92;1773032;80;21098;-64
2021/04/08 07:24:43;;;;;;;17.85;11.78;;;;;;;4.51;62.95;99156.47;1769820;81;21312;-66
2021/04/08 07:27:16;;;;;;;17.87;11.15;;;;;;;4.50;62.89;99163.50;1769720;80;21135;-66
2021/04/08 07:29:48;;;;;;;18.25;12.55;;;;;;;4.66;62.53;99166.10;1776046;79;21276;-65
2021/04/08 07:32:33;;;;;;;18.77;12.80;;;;;;;4.65;62.56;99170.95;1773310;80;21800;-65
2021/04/08 07:35:16;;;;;;;19.70;13.10;;;;;;;4.61;64.13;99165.51;1765228;80;21734;-65
2021/04/08 07:37:55;;;;;;;23.87;16.00;;;;;;;4.68;62.82;99169.49;1773722;80;21706;-66
2021/04/08 07:40:25;;;;;;;20.02;13.15;;;;;;;4.66;62.68;99181.81;1705355;83;21167;-65
2021/04/08 07:42:52;;;;;;;16.60;12.03;;;;;;;4.63;62.58;99183.75;1734654;81;21306;-65
2021/04/08 07:45:30;;;;;;;18.45;11.48;;;;;;;4.70;62.64;99197.73;1701686;83;21176;-65
2021/04/08 07:48:05;;;;;;;20.02;12.45;;;;;;;4.70;62.84;99188.56;1764374;80;21196;-65
2021/04/08 07:50:37;;;;;;;20.45;12.20;;;;;;;4.65;62.76;99198.45;1749458;80;21160;-65
2021/04/08 07:53:05;;;;;;;18.65;12.47;;;;;;;4.65;62.83;99202.86;1768035;80;21259;-66
2021/04/08 07:55:36;;;;;;;16.25;11.18;;;;;;;4.66;62.89;99201.45;1779735;80;21088;-63
2021/04/08 07:58:13;;;;;;;15.30;11.10;;;;;;;4.71;63.22;99196.81;1768844;80;21143;-63
2021/04/08 08:00:47;;;;;;;17.23;10.70;;;;;;;5.00;62.98;99200.05;1772430;80;21286;-64
2021/04/08 08:03:33;;;;;;;13.68;10.30;;;;;;;5.14;62.84;99198.83;1707234;83;21164;-64
2021/04/08 08:06:01;;;;;;;14.78;11.05;;;;;;;5.21;62.13;99200.63;1774322;80;21171;-64
2021/04/08 08:08:45;;;;;;;16.17;11.33;;;;;;;5.27;61.91;99197.66;1703572;83;21183;-64
2021/04/08 08:11:15;;;;;;;18.45;11.22;;;;;;;5.34;61.91;99202.91;1767522;80;21597;-64
2021/04/08 08:13:50;;;;;;;16.45;11.43;;;;;;;5.41;61.83;99202.94;1780981;80;21127;-65
2021/04/08 08:16:24;;;;;;;17.67;11.75;;;;;;;5.51;61.76;99205.03;1701715;83;21317;-65
2021/04/08 08:18:51;;;;;;;;;;;;;;;5.59;61.54;99205.44;1776135;81;21698;-65
2021/04/08 08:21:23;;;;;;;13.68;9.65;;;;;;;5.70;61.49;99208.28;1777668;80;20207;-64
2021/04/08 08:23:53;;;;;;;15.72;10.20;;;;;;;5.89;60.85;99208.48;1755698;80;21549;-65
2021/04/08 08:26:42;;;;;;;14.05;9.58;;;;;;;6.15;60.79;99210.04;1760686;80;21131;-65
2021/04/08 08:29:16;;;;;;;14.85;10.45;;;;;;;6.29;59.65;99217.08;1776039;80;21163;-65
2021/04/08 08:32:04;;;;;;;16.62;10.58;;;;;;;6.34;59.54;99219.81;1769636;80;21144;-65
2021/04/08 08:34:35;;;;;;;15.00;10.05;;;;;;;6.38;59.05;99208.63;1777376;80;21607;-65
2021/04/08 08:37:10;;;;;;;14.75;10.48;;;;;;;6.43;58.42;99210.98;1782398;80;21484;-64
2021/04/08 08:39:39;;;;;;;;;;;;;;;6.40;58.49;99223.84;1782766;80;21160;-64
2021/04/08 08:42:12;;;;;;;14.20;10.08;;;;;;;6.36;57.55;99213.98;1769040;80;20140;-64
2021/04/08 08:44:39;;;;;;;13.70;9.80;;;;;;;6.24;57.75;99230.52;1776645;80;21168;-64
2021/04/08 08:47:12;;;;;;;13.25;9.75;;;;;;;6.19;58.68;99225.98;1773035;80;21092;-64
2021/04/08 08:49:47;;;;;;;16.97;9.43;;;;;;;6.19;57.87;99224.66;1777101;80;21165;-65
2021/04/08 08:52:22;;;;;;;14.53;9.43;;;;;;;6.22;57.55;99228.44;1770154;80;21194;-64
2021/04/08 08:54:49;;;;;;;14.18;9.85;;;;;;;6.29;56.30;99221.02;1769492;80;21133;-65
2021/04/08 09:28:40;;;;;;;10.63;8.30;;;;;;;9.23;48.80;99235.25;1781880;79;22958;-64
2021/04/08 09:31:08;;;;;;;12.58;8.83;;;;;;;9.20;48.96;99227.58;1759276;80;21173;-64
2021/04/08 09:33:46;;;;;;;13.03;8.55;;;;;;;8.98;49.34;99231.77;1679792;80;21166;-64
2021/04/08 09:36:24;;;;;;;12.50;8.15;;;;;;;8.90;49.77;99232.81;1739157;80;21160;-64
2021/04/08 09:38:56;;;;;;;10.10;8.25;;;;;;;8.83;50.25;99242.10;1734070;80;21115;-65
2021/04/08 09:41:45;;;;;;;10.05;8.08;;;;;;;8.82;50.36;99237.77;1755880;80;21159;-65
2021/04/08 09:44:14;;;;;;;10.20;7.67;;;;;;;8.86;50.72;99243.19;1720487;82;21162;-64
2021/04/08 09:47:00;;;;;;;11.70;7.75;;;;;;;8.91;49.62;99248.98;1690890;84;21173;-65
2021/04/08 09:49:43;;;;;;;11.50;7.45;;;;;;;8.92;48.78;99234.84;1736278;82;21174;-65
2021/04/08 09:52:12;;;;;;;9.98;7.45;;;;;;;8.84;48.55;99240.66;1703964;82;21204;-64
2021/04/08 09:54:47;;;;;;;9.00;6.40;;;;;;;8.77;49.22;99246.48;1690580;84;21312;-65
2021/04/08 09:57:35;;;;;;;11.30;7.17;;;;;;;8.67;47.57;99247.14;1701995;82;21315;-64
2021/04/08 10:00:07;;;;;;;11.22;7.00;;;;;;;8.35;47.19;99245.39;1681626;82;21210;-64
2021/04/08 10:03:04;;;;;;;10.63;7.92;;;;;;;8.09;48.65;99250.66;1703779;82;21165;-65
2021/04/08 10:05:36;;;;;;;8.25;6.58;;;;;;;7.99;49.14;99246.52;1699177;82;21927;-64
2021/04/08 10:08:05;;;;;;;11.78;7.42;;;;;;;7.99;48.55;99253.09;1706985;82;21170;-64
2021/04/08 10:10:43;;;;;;;10.78;6.87;;;;;;;8.06;48.54;99256.61;1678032;85;21209;-65
2021/04/08 10:13:27;;;;;;;9.75;7.20;;;;;;;8.11;47.62;99247.95;1679735;84;21162;-64
2021/04/08 10:16:00;;;;;;;9.10;6.62;;;;;;;7.99;47.15;99238.62;1700289;82;21159;-64
2021/04/08 10:18:29;;;;;;;9.73;7.12;;;;;;;7.91;47.91;99253.24;1686097;82;21650;-64
2021/04/08 10:20:59;;;;;;;9.78;6.45;;;;;;;7.80;48.29;99259.21;1679886;84;21175;-64
2021/04/08 10:23:41;;;;;;;11.18;7.60;;;;;;;7.67;47.80;99252.60;1677713;85;21155;-65
2021/04/08 10:26:15;;;;;;;12.82;6.05;;;;;;;7.47;48.17;99256.09;1689221;84;21141;-65
2021/04/08 10:28:46;;;;;;;8.50;5.80;;;;;;;7.38;47.64;99254.89;1692376;84;21177;-65
2021/04/08 10:31:33;;;;;;;7.78;5.65;;;;;;;7.25;46.40;99252.70;1695853;84;21298;-65
2021/04/08 10:34:08;;;;;;;8.95;6.47;;;;;;;7.10;47.44;99262.41;1690778;84;21152;-65
2021/04/08 10:36:55;;;;;;;10.18;6.50;;;;;;;7.09;48.31;99258.57;1695726;84;21549;-64
2021/04/08 10:39:27;;;;;;;8.60;6.20;;;;;;;7.04;47.56;99264.94;1685394;83;21172;-65
2021/04/08 10:42:02;;;;;;;9.48;6.62;;;;;;;6.85;48.06;99265.28;1692494;84;21624;-65
2021/04/08 10:44:41;;;;;;;9.60;6.33;;;;;;;6.81;48.00;99261.63;1690688;84;21293;-65
2021/04/08 10:47:13;;;;;;;8.05;5.85;;;;;;;6.66;48.47;99264.27;1692151;84;21159;-66
2021/04/08 10:49:46;;;;;;;10.55;6.87;;;;;;;6.62;48.35;99271.12;1694530;84;21148;-65
2021/04/08 10:52:20;;;;;;;11.48;6.62;;;;;;;6.66;47.91;99260.78;1695133;84;21533;-65
2021/04/08 10:54:52;;;;;;;10.00;6.37;;;;;;;6.91;49.37;99266.67;1693759;84;21163;-67
2021/04/08 10:57:21;;;;;;;9.65;6.03;;;;;;;7.16;47.51;99265.11;1692143;84;21154;-66
2021/04/08 10:59:49;;;;;;;12.53;7.75;;;;;;;7.21;48.44;99274.41;1695234;84;21608;-65
2021/04/08 11:02:39;;;;;;;10.23;7.55;;;;;;;7.19;48.96;99270.19;1695175;84;21132;-66
2021/04/08 11:05:26;;;;;;;11.88;7.55;;;;;;;7.32;49.94;99276.81;1695105;84;21117;-65
2021/04/08 11:07:58;;;;;;;9.63;7.12;;;;;;;7.56;49.99;99270.43;1697115;83;21137;-65
2021/04/08 11:10:27;;;;;;;10.68;7.25;;;;;;;7.77;49.08;99268.64;1701777;83;21153;-65
2021/04/08 11:12:58;;;;;;;11.53;7.72;;;;;;;7.80;48.26;99267.11;1701259;83;21114;-65
2021/04/08 11:15:28;;;;;;;12.82;7.33;;;;;;;7.79;48.73;99260.18;1695289;84;21169;-65
2021/04/08 11:18:08;;;;;;;15.00;9.00;;;;;;;7.79;47.89;99265.45;1694860;84;21166;-65
2021/04/08 11:20:43;;;;;;;10.35;6.65;;;;;;;7.79;47.58;99265.45;1694196;84;21311;-65
2021/04/08 11:23:12;;;;;;;10.30;6.30;;;;;;;7.77;45.61;99268.16;1695557;84;21156;-65
2021/04/08 11:25:39;;;;;;;12.05;7.45;;;;;;;7.62;46.93;99277.06;1695691;84;21141;-65
2021/04/08 11:28:08;;;;;;;10.78;7.15;;;;;;;7.45;46.65;99265.02;1694764;84;21144;-66
2021/04/08 11:30:38;;;;;;;10.28;6.53;;;;;;;7.43;45.91;99269.53;1669210;84;21197;-65
2021/04/08 11:33:07;;;;;;;10.18;6.12;;;;;;;7.40;46.38;99260.05;1723182;83;21155;-65
2021/04/08 11:35:41;;;;;;;10.03;6.72;;;;;;;7.40;46.39;99254.79;1686795;83;21177;-65
2021/04/08 11:38:16;;;;;;;9.98;5.90;;;;;;;7.26;46.00;99260.94;1685072;83;21670;-65
2021/04/08 11:40:49;;;;;;;9.25;6.10;;;;;;;7.11;47.22;99269.81;1725993;83;21175;-65
2021/04/08 11:43:32;;;;;;;8.48;5.47;;;;;;;7.08;46.56;99278.74;1708132;83;21614;-64
2021/04/08 11:46:03;;;;;;;8.48;5.67;;;;;;;7.19;46.82;99274.13;1723320;83;21289;-65
2021/04/08 11:48:45;;;;;;;7.35;5.83;;;;;;;7.40;45.40;99268.42;1723235;83;21194;-65
2021/04/08 11:51:13;;;;;;;7.53;5.78;;;;;;;7.48;45.14;99275.33;1723015;83;21305;-65
2021/04/08 11:53:42;;;;;;;8.95;6.53;;;;;;;7.53;45.56;99283.77;1685939;83;21122;-65
2021/04/08 11:56:32;;;;;;;7.25;5.15;;;;;;;7.55;45.28;99295.88;1708972;83;21210;-66
2021/04/08 11:59:13;;;;;;;9.05;5.40;;;;;;;7.44;44.02;99301.00;1723311;83;21329;-65
2021/04/08 12:01:49;;;;;;;8.28;5.78;;;;;;;7.34;45.49;99297.27;1716316;83;21170;-65
2021/04/08 12:04:21;;;;;;;10.63;6.53;;;;;;;7.21;46.69;99298.53;1697573;83;21182;-66
2021/04/08 12:06:59;;;;;;;13.88;7.08;;;;;;;7.13;45.87;99294.24;1708837;83;21809;-65
2021/04/08 12:09:44;;;;;;;9.58;6.15;;;;;;;7.00;46.94;99297.63;1689851;83;21276;-66
2021/04/08 12:12:12;;;;;;;9.65;6.50;;;;;;;6.86;47.18;99297.66;1698638;83;21560;-67
2021/04/08 12:14:58;;;;;;;11.53;6.87;;;;;;;6.73;47.25;99308.92;1686872;83;21304;-66
2021/04/08 12:17:27;;;;;;;9.98;6.28;;;;;;;6.63;46.90;99314.37;1702498;83;21810;-66
2021/04/08 12:20:13;;;;;;;10.50;6.85;;;;;;;6.64;48.31;99320.01;1706424;83;21693;-66